sensor_id;sensor_type;location;lat;lon;timestamp;P1;durP1;ratioP1;P2;durP2;ratioP2
18596;SDS011;9428;50.950;6.912;2023-01-25T00:00:19;19.30;;;11.83;;
18596;SDS011;9428;50.950;6.912;2023-01-25T00:03:07;22.03;;;12.63;;
18596;SDS011;9428;50.950;6.912;2023-01-25T00:05:58;19.33;;;11.73;;
18596;SDS011;9428;50.950;6.912;2023-01-25T00:08:48;20.93;;;12.47;;
18596;SDS011;9428;50.950;6.912;2023-01-25T00:11:35;14.27;;;9.57;;
18596;SDS011;9428;50.950;6.912;2023-01-25T00:14:22;14.33;;;9.77;;
18596;SDS011;9428;50.950;6.912;2023-01-25T00:17:10;16.10;;;9.80;;
18596;SDS011;9428;50.950;6.912;2023-01-25T00:19:57;18.83;;;11.17;;
18596;SDS011;9428;50.950;6.912;2023-01-25T00:22:46;17.50;;;10.83;;
18596;SDS011;9428;50.950;6.912;2023-01-25T00:25:33;17.40;;;10.37;;
18596;SDS011;9428;50.950;6.912;2023-01-25T00:28:20;19.20;;;12.13;;
18596;SDS011;9428;50.950;6.912;2023-01-25T00:31:08;17.13;;;10.80;;
18596;SDS011;9428;50.950;6.912;2023-01-25T00:34:05;17.87;;;11.33;;
18596;SDS011;9428;50.950;6.912;2023-01-25T00:40:23;20.00;;;12.23;;
18596;SDS011;9428;50.950;6.912;2023-01-25T00:43:10;19.47;;;11.70;;
18596;SDS011;9428;50.950;6.912;2023-01-25T00:45:59;15.70;;;11.00;;
18596;SDS011;9428;50.950;6.912;2023-01-25T00:48:46;15.30;;;10.50;;
18596;SDS011;9428;50.950;6.912;2023-01-25T00:51:33;16.77;;;11.23;;
18596;SDS011;9428;50.950;6.912;2023-01-25T00:54:21;15.30;;;9.87;;
18596;SDS011;9428;50.950;6.912;2023-01-25T00:57:09;17.87;;;10.70;;
18596;SDS011;9428;50.950;6.912;2023-01-25T00:59:57;17.80;;;10.67;;
18596;SDS011;9428;50.950;6.912;2023-01-25T01:02:44;19.07;;;11.57;;
18596;SDS011;9428;50.950;6.912;2023-01-25T01:05:31;17.63;;;11.03;;
18596;SDS011;9428;50.950;6.912;2023-01-25T01:08:20;16.57;;;10.67;;
18596;SDS011;9428;50.950;6.912;2023-01-25T01:11:08;19.27;;;11.10;;
18596;SDS011;9428;50.950;6.912;2023-01-25T01:13:58;15.23;;;10.67;;
18596;SDS011;9428;50.950;6.912;2023-01-25T01:16:46;18.30;;;11.80;;
18596;SDS011;9428;50.950;6.912;2023-01-25T01:19:33;15.70;;;10.90;;
18596;SDS011;9428;50.950;6.912;2023-01-25T01:22:20;16.93;;;11.10;;
18596;SDS011;9428;50.950;6.912;2023-01-25T01:25:08;19.70;;;11.07;;
18596;SDS011;9428;50.950;6.912;2023-01-25T01:27:55;16.17;;;9.60;;
18596;SDS011;9428;50.950;6.912;2023-01-25T01:30:44;15.57;;;9.87;;
18596;SDS011;9428;50.950;6.912;2023-01-25T01:33:31;16.83;;;11.43;;
18596;SDS011;9428;50.950;6.912;2023-01-25T01:36:19;15.40;;;10.00;;
18596;SDS011;9428;50.950;6.912;2023-01-25T01:39:08;14.63;;;9.50;;
18596;SDS011;9428;50.950;6.912;2023-01-25T01:41:55;14.23;;;9.57;;
18596;SDS011;9428;50.950;6.912;2023-01-25T01:44:43;15.57;;;9.77;;
18596;SDS011;9428;50.950;6.912;2023-01-25T01:47:35;17.90;;;10.27;;
18596;SDS011;9428;50.950;6.912;2023-01-25T01:50:30;17.73;;;11.23;;
18596;SDS011;9428;50.950;6.912;2023-01-25T01:53:17;17.00;;;11.13;;
18596;SDS011;9428;50.950;6.912;2023-01-25T01:56:06;17.37;;;10.00;;
18596;SDS011;9428;50.950;6.912;2023-01-25T01:58:55;17.03;;;10.67;;
18596;SDS011;9428;50.950;6.912;2023-01-25T02:01:44;16.80;;;10.37;;
18596;SDS011;9428;50.950;6.912;2023-01-25T02:04:33;13.37;;;9.13;;
18596;SDS011;9428;50.950;6.912;2023-01-25T02:07:22;15.93;;;9.60;;
18596;SDS011;9428;50.950;6.912;2023-01-25T02:10:15;15.57;;;9.53;;
18596;SDS011;9428;50.950;6.912;2023-01-25T02:13:03;16.73;;;9.83;;
18596;SDS011;9428;50.950;6.912;2023-01-25T02:15:51;15.27;;;9.83;;
18596;SDS011;9428;50.950;6.912;2023-01-25T02:18:40;16.93;;;10.53;;
18596;SDS011;9428;50.950;6.912;2023-01-25T02:21:31;15.43;;;10.03;;
18596;SDS011;9428;50.950;6.912;2023-01-25T02:24:24;15.63;;;9.97;;
18596;SDS011;9428;50.950;6.912;2023-01-25T02:27:17;13.73;;;9.40;;
18596;SDS011;9428;50.950;6.912;2023-01-25T02:30:05;15.60;;;9.70;;
18596;SDS011;9428;50.950;6.912;2023-01-25T02:32:53;17.23;;;10.83;;
18596;SDS011;9428;50.950;6.912;2023-01-25T02:35:41;18.03;;;9.73;;
18596;SDS011;9428;50.950;6.912;2023-01-25T02:38:33;14.73;;;10.13;;
18596;SDS011;9428;50.950;6.912;2023-01-25T02:41:32;15.93;;;10.60;;
18596;SDS011;9428;50.950;6.912;2023-01-25T02:44:23;16.23;;;10.53;;
18596;SDS011;9428;50.950;6.912;2023-01-25T02:47:11;17.53;;;10.60;;
18596;SDS011;9428;50.950;6.912;2023-01-25T02:49:59;17.57;;;10.80;;
18596;SDS011;9428;50.950;6.912;2023-01-25T02:52:46;18.50;;;10.93;;
18596;SDS011;9428;50.950;6.912;2023-01-25T02:55:33;17.67;;;11.40;;
18596;SDS011;9428;50.950;6.912;2023-01-25T02:58:20;17.47;;;11.70;;
18596;SDS011;9428;50.950;6.912;2023-01-25T03:01:09;16.80;;;10.10;;
18596;SDS011;9428;50.950;6.912;2023-01-25T03:03:58;15.33;;;10.20;;
18596;SDS011;9428;50.950;6.912;2023-01-25T03:06:45;19.67;;;11.07;;
18596;SDS011;9428;50.950;6.912;2023-01-25T03:09:32;17.77;;;11.27;;
18596;SDS011;9428;50.950;6.912;2023-01-25T03:12:19;15.17;;;8.90;;
18596;SDS011;9428;50.950;6.912;2023-01-25T03:15:07;15.63;;;10.27;;
18596;SDS011;9428;50.950;6.912;2023-01-25T03:17:56;15.87;;;10.33;;
18596;SDS011;9428;50.950;6.912;2023-01-25T03:20:44;19.43;;;12.30;;
18596;SDS011;9428;50.950;6.912;2023-01-25T03:23:31;18.17;;;11.50;;
18596;SDS011;9428;50.950;6.912;2023-01-25T03:26:19;20.03;;;10.77;;
18596;SDS011;9428;50.950;6.912;2023-01-25T03:29:08;14.60;;;10.37;;
18596;SDS011;9428;50.950;6.912;2023-01-25T03:31:55;16.77;;;11.13;;
18596;SDS011;9428;50.950;6.912;2023-01-25T03:34:43;16.83;;;10.97;;
18596;SDS011;9428;50.950;6.912;2023-01-25T03:37:31;17.60;;;11.20;;
18596;SDS011;9428;50.950;6.912;2023-01-25T03:40:18;21.47;;;12.10;;
18596;SDS011;9428;50.950;6.912;2023-01-25T03:43:06;24.17;;;12.80;;
18596;SDS011;9428;50.950;6.912;2023-01-25T03:45:53;24.20;;;13.73;;
18596;SDS011;9428;50.950;6.912;2023-01-25T03:48:42;18.13;;;12.40;;
18596;SDS011;9428;50.950;6.912;2023-01-25T03:51:31;19.53;;;11.40;;
18596;SDS011;9428;50.950;6.912;2023-01-25T03:54:18;18.40;;;11.80;;
18596;SDS011;9428;50.950;6.912;2023-01-25T03:57:06;16.77;;;10.40;;
18596;SDS011;9428;50.950;6.912;2023-01-25T03:59:53;19.67;;;11.53;;
18596;SDS011;9428;50.950;6.912;2023-01-25T04:02:40;20.97;;;12.50;;
18596;SDS011;9428;50.950;6.912;2023-01-25T04:05:27;17.47;;;11.27;;
18596;SDS011;9428;50.950;6.912;2023-01-25T04:08:16;18.43;;;10.97;;
18596;SDS011;9428;50.950;6.912;2023-01-25T04:11:04;18.13;;;11.07;;
18596;SDS011;9428;50.950;6.912;2023-01-25T04:13:53;19.13;;;12.07;;
18596;SDS011;9428;50.950;6.912;2023-01-25T04:16:40;17.97;;;11.30;;
18596;SDS011;9428;50.950;6.912;2023-01-25T04:19:27;21.77;;;12.60;;
18596;SDS011;9428;50.950;6.912;2023-01-25T04:22:14;19.67;;;12.53;;
18596;SDS011;9428;50.950;6.912;2023-01-25T04:25:03;20.30;;;11.53;;
18596;SDS011;9428;50.950;6.912;2023-01-25T04:27:51;20.13;;;11.53;;
18596;SDS011;9428;50.950;6.912;2023-01-25T04:30:38;16.70;;;11.33;;
18596;SDS011;9428;50.950;6.912;2023-01-25T04:33:25;18.63;;;10.73;;
18596;SDS011;9428;50.950;6.912;2023-01-25T04:36:12;18.10;;;10.87;;
18596;SDS011;9428;50.950;6.912;2023-01-25T04:38:59;19.83;;;11.77;;
18596;SDS011;9428;50.950;6.912;2023-01-25T04:41:48;18.83;;;11.03;;
18596;SDS011;9428;50.950;6.912;2023-01-25T04:44:35;15.30;;;9.67;;
18596;SDS011;9428;50.950;6.912;2023-01-25T04:47:22;18.67;;;10.60;;
18596;SDS011;9428;50.950;6.912;2023-01-25T04:50:09;17.83;;;11.40;;
18596;SDS011;9428;50.950;6.912;2023-01-25T04:52:57;18.40;;;11.10;;
18596;SDS011;9428;50.950;6.912;2023-01-25T04:55:44;16.13;;;10.07;;
18596;SDS011;9428;50.950;6.912;2023-01-25T04:58:34;17.43;;;10.93;;
18596;SDS011;9428;50.950;6.912;2023-01-25T05:01:21;17.33;;;10.33;;
18596;SDS011;9428;50.950;6.912;2023-01-25T05:04:08;17.73;;;10.83;;
18596;SDS011;9428;50.950;6.912;2023-01-25T05:06:55;18.87;;;10.30;;
18596;SDS011;9428;50.950;6.912;2023-01-25T05:09:42;19.73;;;11.47;;
18596;SDS011;9428;50.950;6.912;2023-01-25T05:12:30;19.30;;;11.27;;
18596;SDS011;9428;50.950;6.912;2023-01-25T05:15:18;22.80;;;12.77;;
18596;SDS011;9428;50.950;6.912;2023-01-25T05:18:06;19.80;;;12.00;;
18596;SDS011;9428;50.950;6.912;2023-01-25T05:20:53;20.10;;;11.87;;
18596;SDS011;9428;50.950;6.912;2023-01-25T05:23:41;20.57;;;11.70;;
18596;SDS011;9428;50.950;6.912;2023-01-25T05:26:28;17.90;;;11.37;;
18596;SDS011;9428;50.950;6.912;2023-01-25T05:29:34;19.77;;;11.63;;
18596;SDS011;9428;50.950;6.912;2023-01-25T05:32:24;18.93;;;11.20;;
18596;SDS011;9428;50.950;6.912;2023-01-25T05:35:11;19.80;;;11.77;;
18596;SDS011;9428;50.950;6.912;2023-01-25T05:37:59;21.90;;;12.97;;
18596;SDS011;9428;50.950;6.912;2023-01-25T05:40:46;23.10;;;12.53;;
18596;SDS011;9428;50.950;6.912;2023-01-25T05:43:33;18.27;;;11.63;;
18596;SDS011;9428;50.950;6.912;2023-01-25T05:46:20;17.37;;;11.47;;
18596;SDS011;9428;50.950;6.912;2023-01-25T05:49:09;21.20;;;11.43;;
18596;SDS011;9428;50.950;6.912;2023-01-25T05:51:57;22.67;;;12.90;;
18596;SDS011;9428;50.950;6.912;2023-01-25T05:54:44;22.83;;;13.63;;
18596;SDS011;9428;50.950;6.912;2023-01-25T05:57:31;22.97;;;14.03;;
18596;SDS011;9428;50.950;6.912;2023-01-25T06:00:19;18.30;;;11.70;;
18596;SDS011;9428;50.950;6.912;2023-01-25T06:03:06;23.63;;;13.17;;
18596;SDS011;9428;50.950;6.912;2023-01-25T06:05:55;20.27;;;12.33;;
18596;SDS011;9428;50.950;6.912;2023-01-25T06:08:43;22.70;;;13.17;;
18596;SDS011;9428;50.950;6.912;2023-01-25T06:11:31;21.00;;;11.53;;
18596;SDS011;9428;50.950;6.912;2023-01-25T06:14:18;17.97;;;10.90;;
18596;SDS011;9428;50.950;6.912;2023-01-25T06:17:05;19.43;;;11.47;;
18596;SDS011;9428;50.950;6.912;2023-01-25T06:19:52;16.73;;;10.67;;
18596;SDS011;9428;50.950;6.912;2023-01-25T06:22:41;21.20;;;12.33;;
18596;SDS011;9428;50.950;6.912;2023-01-25T06:25:28;20.23;;;11.53;;
18596;SDS011;9428;50.950;6.912;2023-01-25T06:28:15;24.17;;;14.03;;
18596;SDS011;9428;50.950;6.912;2023-01-25T06:31:03;22.20;;;12.87;;
18596;SDS011;9428;50.950;6.912;2023-01-25T06:33:52;21.77;;;13.67;;
18596;SDS011;9428;50.950;6.912;2023-01-25T06:36:39;21.33;;;12.17;;
18596;SDS011;9428;50.950;6.912;2023-01-25T06:39:27;17.00;;;10.63;;
18596;SDS011;9428;50.950;6.912;2023-01-25T06:42:15;19.97;;;12.20;;
18596;SDS011;9428;50.950;6.912;2023-01-25T06:45:02;20.83;;;13.00;;
18596;SDS011;9428;50.950;6.912;2023-01-25T06:47:49;18.90;;;11.43;;
18596;SDS011;9428;50.950;6.912;2023-01-25T06:50:37;22.17;;;12.13;;
18596;SDS011;9428;50.950;6.912;2023-01-25T06:53:25;20.43;;;13.03;;
18596;SDS011;9428;50.950;6.912;2023-01-25T06:56:15;22.33;;;13.30;;
18596;SDS011;9428;50.950;6.912;2023-01-25T06:59:03;20.93;;;12.50;;
18596;SDS011;9428;50.950;6.912;2023-01-25T07:01:50;22.43;;;13.77;;
18596;SDS011;9428;50.950;6.912;2023-01-25T07:04:38;20.40;;;12.37;;
18596;SDS011;9428;50.950;6.912;2023-01-25T07:07:25;20.50;;;12.17;;
18596;SDS011;9428;50.950;6.912;2023-01-25T07:10:12;23.03;;;13.53;;
18596;SDS011;9428;50.950;6.912;2023-01-25T07:13:01;19.20;;;12.70;;
18596;SDS011;9428;50.950;6.912;2023-01-25T07:15:52;19.80;;;12.50;;
18596;SDS011;9428;50.950;6.912;2023-01-25T07:18:40;22.13;;;12.83;;
18596;SDS011;9428;50.950;6.912;2023-01-25T07:21:28;20.77;;;12.67;;
18596;SDS011;9428;50.950;6.912;2023-01-25T07:24:15;23.97;;;13.43;;
18596;SDS011;9428;50.950;6.912;2023-01-25T07:27:04;24.97;;;13.53;;
18596;SDS011;9428;50.950;6.912;2023-01-25T07:29:53;22.37;;;13.50;;
18596;SDS011;9428;50.950;6.912;2023-01-25T07:32:40;20.43;;;12.50;;
18596;SDS011;9428;50.950;6.912;2023-01-25T07:35:27;20.23;;;12.30;;
18596;SDS011;9428;50.950;6.912;2023-01-25T07:38:14;21.60;;;12.63;;
18596;SDS011;9428;50.950;6.912;2023-01-25T07:41:02;22.17;;;13.97;;
18596;SDS011;9428;50.950;6.912;2023-01-25T07:43:49;20.47;;;13.17;;
18596;SDS011;9428;50.950;6.912;2023-01-25T07:46:38;23.03;;;14.53;;
18596;SDS011;9428;50.950;6.912;2023-01-25T07:49:26;19.50;;;12.63;;
18596;SDS011;9428;50.950;6.912;2023-01-25T07:52:13;24.60;;;15.30;;
18596;SDS011;9428;50.950;6.912;2023-01-25T07:55:00;23.80;;;14.70;;
18596;SDS011;9428;50.950;6.912;2023-01-25T07:57:47;24.97;;;14.80;;
18596;SDS011;9428;50.950;6.912;2023-01-25T08:00:35;23.87;;;14.40;;
18596;SDS011;9428;50.950;6.912;2023-01-25T08:03:23;25.13;;;14.77;;
18596;SDS011;9428;50.950;6.912;2023-01-25T08:06:10;27.00;;;15.73;;
18596;SDS011;9428;50.950;6.912;2023-01-25T08:08:58;31.87;;;16.77;;
18596;SDS011;9428;50.950;6.912;2023-01-25T08:11:46;26.60;;;16.27;;
18596;SDS011;9428;50.950;6.912;2023-01-25T08:14:34;25.50;;;15.00;;
18596;SDS011;9428;50.950;6.912;2023-01-25T08:17:22;25.50;;;15.00;;
18596;SDS011;9428;50.950;6.912;2023-01-25T08:20:17;25.13;;;14.93;;
18596;SDS011;9428;50.950;6.912;2023-01-25T08:23:06;25.50;;;15.63;;
18596;SDS011;9428;50.950;6.912;2023-01-25T08:25:53;24.77;;;16.20;;
18596;SDS011;9428;50.950;6.912;2023-01-25T08:28:41;24.37;;;15.43;;
18596;SDS011;9428;50.950;6.912;2023-01-25T08:31:29;30.07;;;17.90;;
18596;SDS011;9428;50.950;6.912;2023-01-25T08:34:17;25.60;;;16.37;;
18596;SDS011;9428;50.950;6.912;2023-01-25T08:37:06;28.50;;;16.80;;
18596;SDS011;9428;50.950;6.912;2023-01-25T08:39:54;29.13;;;17.03;;
18596;SDS011;9428;50.950;6.912;2023-01-25T08:42:44;25.87;;;16.60;;
18596;SDS011;9428;50.950;6.912;2023-01-25T08:45:31;27.10;;;15.13;;
18596;SDS011;9428;50.950;6.912;2023-01-25T08:48:21;26.30;;;16.60;;
18596;SDS011;9428;50.950;6.912;2023-01-25T08:51:08;25.13;;;16.00;;
18596;SDS011;9428;50.950;6.912;2023-01-25T08:54:02;23.17;;;14.83;;
18596;SDS011;9428;50.950;6.912;2023-01-25T08:56:49;22.13;;;14.93;;
18596;SDS011;9428;50.950;6.912;2023-01-25T08:59:37;26.73;;;16.27;;
18596;SDS011;9428;50.950;6.912;2023-01-25T09:02:24;28.40;;;16.23;;
18596;SDS011;9428;50.950;6.912;2023-01-25T09:05:11;27.67;;;15.83;;
18596;SDS011;9428;50.950;6.912;2023-01-25T09:07:58;26.63;;;16.30;;
18596;SDS011;9428;50.950;6.912;2023-01-25T09:10:47;28.00;;;16.73;;
18596;SDS011;9428;50.950;6.912;2023-01-25T09:13:34;29.80;;;18.63;;
18596;SDS011;9428;50.950;6.912;2023-01-25T09:16:22;30.27;;;17.87;;
18596;SDS011;9428;50.950;6.912;2023-01-25T09:19:13;33.03;;;18.03;;
18596;SDS011;9428;50.950;6.912;2023-01-25T09:22:01;28.87;;;17.73;;
18596;SDS011;9428;50.950;6.912;2023-01-25T09:24:48;27.77;;;16.47;;
18596;SDS011;9428;50.950;6.912;2023-01-25T09:27:39;32.17;;;18.60;;
18596;SDS011;9428;50.950;6.912;2023-01-25T09:30:27;27.17;;;16.77;;
18596;SDS011;9428;50.950;6.912;2023-01-25T09:33:14;30.87;;;18.57;;
18596;SDS011;9428;50.950;6.912;2023-01-25T09:36:02;33.53;;;19.70;;
18596;SDS011;9428;50.950;6.912;2023-01-25T09:38:50;29.43;;;18.17;;
18596;SDS011;9428;50.950;6.912;2023-01-25T09:41:52;36.03;;;18.23;;
18596;SDS011;9428;50.950;6.912;2023-01-25T09:45:10;33.10;;;17.87;;
18596;SDS011;9428;50.950;6.912;2023-01-25T09:48:08;33.13;;;16.93;;
18596;SDS011;9428;50.950;6.912;2023-01-25T09:51:05;28.53;;;15.47;;
18596;SDS011;9428;50.950;6.912;2023-01-25T09:54:06;29.50;;;16.50;;
18596;SDS011;9428;50.950;6.912;2023-01-25T09:56:55;46.17;;;24.70;;
18596;SDS011;9428;50.950;6.912;2023-01-25T09:59:44;27.37;;;16.83;;
18596;SDS011;9428;50.950;6.912;2023-01-25T10:02:38;31.67;;;17.67;;
18596;SDS011;9428;50.950;6.912;2023-01-25T10:05:30;29.60;;;16.97;;
18596;SDS011;9428;50.950;6.912;2023-01-25T10:08:23;31.00;;;17.57;;
18596;SDS011;9428;50.950;6.912;2023-01-25T10:11:16;31.53;;;18.27;;
18596;SDS011;9428;50.950;6.912;2023-01-25T10:14:12;34.93;;;19.10;;
18596;SDS011;9428;50.950;6.912;2023-01-25T10:17:03;33.20;;;17.60;;
18596;SDS011;9428;50.950;6.912;2023-01-25T10:20:00;35.57;;;19.70;;
18596;SDS011;9428;50.950;6.912;2023-01-25T10:23:08;36.80;;;19.10;;
18596;SDS011;9428;50.950;6.912;2023-01-25T10:26:07;34.03;;;19.50;;
18596;SDS011;9428;50.950;6.912;2023-01-25T10:29:00;33.97;;;17.87;;
18596;SDS011;9428;50.950;6.912;2023-01-25T10:31:54;34.73;;;21.07;;
18596;SDS011;9428;50.950;6.912;2023-01-25T10:34:48;36.87;;;19.53;;
18596;SDS011;9428;50.950;6.912;2023-01-25T10:37:37;33.50;;;18.70;;
18596;SDS011;9428;50.950;6.912;2023-01-25T10:40:25;37.03;;;20.53;;
18596;SDS011;9428;50.950;6.912;2023-01-25T10:43:17;35.23;;;20.00;;
18596;SDS011;9428;50.950;6.912;2023-01-25T10:46:10;33.87;;;19.60;;
18596;SDS011;9428;50.950;6.912;2023-01-25T10:49:12;33.47;;;19.43;;
18596;SDS011;9428;50.950;6.912;2023-01-25T10:52:14;32.13;;;19.00;;
18596;SDS011;9428;50.950;6.912;2023-01-25T10:55:10;28.87;;;16.43;;
18596;SDS011;9428;50.950;6.912;2023-01-25T10:58:00;26.73;;;16.07;;
18596;SDS011;9428;50.950;6.912;2023-01-25T11:00:49;28.97;;;17.40;;
18596;SDS011;9428;50.950;6.912;2023-01-25T11:03:37;28.27;;;18.17;;
18596;SDS011;9428;50.950;6.912;2023-01-25T11:06:33;34.40;;;19.37;;
18596;SDS011;9428;50.950;6.912;2023-01-25T11:09:37;34.83;;;18.40;;
18596;SDS011;9428;50.950;6.912;2023-01-25T11:12:26;31.67;;;18.53;;
18596;SDS011;9428;50.950;6.912;2023-01-25T11:15:21;34.43;;;20.03;;
18596;SDS011;9428;50.950;6.912;2023-01-25T11:18:11;33.00;;;18.47;;
18596;SDS011;9428;50.950;6.912;2023-01-25T11:21:02;32.53;;;17.77;;
18596;SDS011;9428;50.950;6.912;2023-01-25T11:24:13;31.00;;;17.50;;
18596;SDS011;9428;50.950;6.912;2023-01-25T11:27:10;33.97;;;19.23;;
18596;SDS011;9428;50.950;6.912;2023-01-25T11:30:09;35.27;;;18.93;;
18596;SDS011;9428;50.950;6.912;2023-01-25T11:33:01;36.70;;;19.63;;
18596;SDS011;9428;50.950;6.912;2023-01-25T11:35:55;41.30;;;20.70;;
18596;SDS011;9428;50.950;6.912;2023-01-25T11:38:55;34.03;;;20.33;;
18596;SDS011;9428;50.950;6.912;2023-01-25T11:42:07;38.13;;;19.90;;
18596;SDS011;9428;50.950;6.912;2023-01-25T11:48:33;33.20;;;20.00;;
18596;SDS011;9428;50.950;6.912;2023-01-25T11:51:35;32.77;;;18.07;;
18596;SDS011;9428;50.950;6.912;2023-01-25T11:54:28;29.40;;;17.20;;
18596;SDS011;9428;50.950;6.912;2023-01-25T11:57:37;31.10;;;17.93;;
18596;SDS011;9428;50.950;6.912;2023-01-25T12:00:34;34.80;;;19.70;;
18596;SDS011;9428;50.950;6.912;2023-01-25T12:07:00;31.07;;;18.67;;
18596;SDS011;9428;50.950;6.912;2023-01-25T12:09:52;36.00;;;18.97;;
18596;SDS011;9428;50.950;6.912;2023-01-25T12:12:50;32.77;;;19.30;;
18596;SDS011;9428;50.950;6.912;2023-01-25T12:15:46;31.17;;;17.77;;
18596;SDS011;9428;50.950;6.912;2023-01-25T12:18:58;32.97;;;17.57;;
18596;SDS011;9428;50.950;6.912;2023-01-25T12:22:14;31.30;;;18.37;;
18596;SDS011;9428;50.950;6.912;2023-01-25T12:25:18;27.97;;;16.77;;
18596;SDS011;9428;50.950;6.912;2023-01-25T12:28:10;39.90;;;19.47;;
18596;SDS011;9428;50.950;6.912;2023-01-25T12:31:06;34.33;;;18.40;;
18596;SDS011;9428;50.950;6.912;2023-01-25T12:33:58;31.20;;;18.40;;
18596;SDS011;9428;50.950;6.912;2023-01-25T12:36:48;33.10;;;18.43;;
18596;SDS011;9428;50.950;6.912;2023-01-25T12:39:38;35.90;;;19.17;;
18596;SDS011;9428;50.950;6.912;2023-01-25T12:42:30;33.60;;;19.07;;
18596;SDS011;9428;50.950;6.912;2023-01-25T12:45:23;31.53;;;19.13;;
18596;SDS011;9428;50.950;6.912;2023-01-25T12:48:15;34.43;;;19.20;;
18596;SDS011;9428;50.950;6.912;2023-01-25T12:51:06;36.00;;;18.17;;
18596;SDS011;9428;50.950;6.912;2023-01-25T12:53:54;34.53;;;19.17;;
18596;SDS011;9428;50.950;6.912;2023-01-25T12:56:45;37.93;;;21.07;;
18596;SDS011;9428;50.950;6.912;2023-01-25T12:59:45;39.83;;;21.23;;
18596;SDS011;9428;50.950;6.912;2023-01-25T13:02:52;39.27;;;19.87;;
18596;SDS011;9428;50.950;6.912;2023-01-25T13:05:54;35.20;;;18.40;;
18596;SDS011;9428;50.950;6.912;2023-01-25T13:08:47;38.23;;;19.37;;
18596;SDS011;9428;50.950;6.912;2023-01-25T13:11:41;31.43;;;17.73;;
18596;SDS011;9428;50.950;6.912;2023-01-25T13:14:30;34.67;;;19.00;;
18596;SDS011;9428;50.950;6.912;2023-01-25T13:17:23;38.67;;;18.57;;
18596;SDS011;9428;50.950;6.912;2023-01-25T13:23:35;41.47;;;18.70;;
18596;SDS011;9428;50.950;6.912;2023-01-25T13:29:46;37.83;;;19.93;;
18596;SDS011;9428;50.950;6.912;2023-01-25T13:35:51;43.67;;;20.73;;
18596;SDS011;9428;50.950;6.912;2023-01-25T13:38:39;40.10;;;18.87;;
18596;SDS011;9428;50.950;6.912;2023-01-25T13:41:27;38.50;;;19.20;;
18596;SDS011;9428;50.950;6.912;2023-01-25T13:44:18;43.43;;;20.13;;
18596;SDS011;9428;50.950;6.912;2023-01-25T13:47:13;42.90;;;19.40;;
18596;SDS011;9428;50.950;6.912;2023-01-25T13:50:07;41.07;;;19.87;;
18596;SDS011;9428;50.950;6.912;2023-01-25T13:53:16;40.53;;;18.97;;
18596;SDS011;9428;50.950;6.912;2023-01-25T13:56:18;52.63;;;21.03;;
18596;SDS011;9428;50.950;6.912;2023-01-25T14:02:15;35.93;;;17.70;;
18596;SDS011;9428;50.950;6.912;2023-01-25T14:05:14;41.27;;;20.60;;
18596;SDS011;9428;50.950;6.912;2023-01-25T14:08:04;41.63;;;20.73;;
18596;SDS011;9428;50.950;6.912;2023-01-25T14:10:54;39.17;;;19.23;;
18596;SDS011;9428;50.950;6.912;2023-01-25T14:13:55;37.03;;;20.80;;
18596;SDS011;9428;50.950;6.912;2023-01-25T14:16:43;40.40;;;21.23;;
18596;SDS011;9428;50.950;6.912;2023-01-25T14:19:31;41.47;;;22.07;;
18596;SDS011;9428;50.950;6.912;2023-01-25T14:22:22;42.13;;;21.57;;
18596;SDS011;9428;50.950;6.912;2023-01-25T14:25:12;38.90;;;20.33;;
18596;SDS011;9428;50.950;6.912;2023-01-25T14:28:01;41.27;;;20.67;;
18596;SDS011;9428;50.950;6.912;2023-01-25T14:30:54;38.50;;;20.53;;
18596;SDS011;9428;50.950;6.912;2023-01-25T14:33:42;35.80;;;18.90;;
18596;SDS011;9428;50.950;6.912;2023-01-25T14:36:32;36.70;;;19.20;;
18596;SDS011;9428;50.950;6.912;2023-01-25T14:39:24;38.07;;;20.23;;
18596;SDS011;9428;50.950;6.912;2023-01-25T14:42:13;35.93;;;19.73;;
18596;SDS011;9428;50.950;6.912;2023-01-25T14:45:02;45.03;;;22.80;;
18596;SDS011;9428;50.950;6.912;2023-01-25T14:47:51;45.50;;;22.27;;
18596;SDS011;9428;50.950;6.912;2023-01-25T14:50:39;43.00;;;22.93;;
18596;SDS011;9428;50.950;6.912;2023-01-25T14:53:27;35.90;;;21.07;;
18596;SDS011;9428;50.950;6.912;2023-01-25T14:56:17;42.07;;;22.00;;
18596;SDS011;9428;50.950;6.912;2023-01-25T14:59:26;39.60;;;20.77;;
18596;SDS011;9428;50.950;6.912;2023-01-25T15:02:18;44.80;;;23.90;;
18596;SDS011;9428;50.950;6.912;2023-01-25T15:05:17;38.03;;;20.40;;
18596;SDS011;9428;50.950;6.912;2023-01-25T15:08:15;47.00;;;22.77;;
18596;SDS011;9428;50.950;6.912;2023-01-25T15:14:23;43.30;;;22.70;;
18596;SDS011;9428;50.950;6.912;2023-01-25T15:20:33;52.03;;;22.00;;
18596;SDS011;9428;50.950;6.912;2023-01-25T15:23:22;51.90;;;24.70;;
18596;SDS011;9428;50.950;6.912;2023-01-25T15:26:12;59.37;;;26.97;;
18596;SDS011;9428;50.950;6.912;2023-01-25T15:29:06;53.43;;;25.90;;
18596;SDS011;9428;50.950;6.912;2023-01-25T15:31:58;54.77;;;24.93;;
18596;SDS011;9428;50.950;6.912;2023-01-25T15:34:46;56.17;;;25.83;;
18596;SDS011;9428;50.950;6.912;2023-01-25T15:37:35;51.30;;;24.17;;
18596;SDS011;9428;50.950;6.912;2023-01-25T15:40:22;54.33;;;25.27;;
18596;SDS011;9428;50.950;6.912;2023-01-25T15:43:10;52.87;;;23.03;;
18596;SDS011;9428;50.950;6.912;2023-01-25T15:45:58;53.23;;;24.60;;
18596;SDS011;9428;50.950;6.912;2023-01-25T15:48:46;54.63;;;25.60;;
18596;SDS011;9428;50.950;6.912;2023-01-25T15:51:38;54.73;;;25.17;;
18596;SDS011;9428;50.950;6.912;2023-01-25T15:54:26;56.77;;;25.40;;
18596;SDS011;9428;50.950;6.912;2023-01-25T15:57:14;52.27;;;23.63;;
18596;SDS011;9428;50.950;6.912;2023-01-25T16:00:14;57.10;;;22.90;;
18596;SDS011;9428;50.950;6.912;2023-01-25T16:03:02;60.33;;;24.00;;
18596;SDS011;9428;50.950;6.912;2023-01-25T16:05:52;52.40;;;23.00;;
18596;SDS011;9428;50.950;6.912;2023-01-25T16:08:43;51.23;;;22.93;;
18596;SDS011;9428;50.950;6.912;2023-01-25T16:11:31;55.37;;;24.80;;
18596;SDS011;9428;50.950;6.912;2023-01-25T16:14:19;45.90;;;22.83;;
18596;SDS011;9428;50.950;6.912;2023-01-25T16:17:10;50.17;;;22.03;;
18596;SDS011;9428;50.950;6.912;2023-01-25T16:20:03;50.73;;;23.17;;
18596;SDS011;9428;50.950;6.912;2023-01-25T16:22:51;51.43;;;23.13;;
18596;SDS011;9428;50.950;6.912;2023-01-25T16:25:39;53.03;;;23.37;;
18596;SDS011;9428;50.950;6.912;2023-01-25T16:28:29;62.33;;;26.30;;
18596;SDS011;9428;50.950;6.912;2023-01-25T16:31:17;62.30;;;27.73;;
18596;SDS011;9428;50.950;6.912;2023-01-25T16:34:04;59.27;;;26.00;;
18596;SDS011;9428;50.950;6.912;2023-01-25T16:36:51;62.37;;;25.23;;
18596;SDS011;9428;50.950;6.912;2023-01-25T16:39:39;58.10;;;26.43;;
18596;SDS011;9428;50.950;6.912;2023-01-25T16:42:26;55.27;;;25.63;;
18596;SDS011;9428;50.950;6.912;2023-01-25T16:45:14;59.50;;;26.37;;
18596;SDS011;9428;50.950;6.912;2023-01-25T16:48:04;61.37;;;24.47;;
18596;SDS011;9428;50.950;6.912;2023-01-25T16:50:51;59.73;;;26.83;;
18596;SDS011;9428;50.950;6.912;2023-01-25T16:53:38;61.23;;;27.33;;
18596;SDS011;9428;50.950;6.912;2023-01-25T16:56:26;67.00;;;26.77;;
18596;SDS011;9428;50.950;6.912;2023-01-25T16:59:15;64.47;;;28.27;;
18596;SDS011;9428;50.950;6.912;2023-01-25T17:02:04;61.37;;;26.47;;
18596;SDS011;9428;50.950;6.912;2023-01-25T17:04:52;59.63;;;27.33;;
18596;SDS011;9428;50.950;6.912;2023-01-25T17:07:39;67.33;;;26.93;;
18596;SDS011;9428;50.950;6.912;2023-01-25T17:10:26;70.87;;;27.17;;
18596;SDS011;9428;50.950;6.912;2023-01-25T17:13:14;75.93;;;29.00;;
18596;SDS011;9428;50.950;6.912;2023-01-25T17:16:01;64.17;;;25.83;;
18596;SDS011;9428;50.950;6.912;2023-01-25T17:18:53;62.60;;;24.93;;
18596;SDS011;9428;50.950;6.912;2023-01-25T17:21:41;62.97;;;25.00;;